createdAt,value
2018-12-27T00:00:54.912Z,19.70
2018-12-27T00:03:22.504Z,18.75
2018-12-27T00:05:50.161Z,21.30
2018-12-27T00:08:17.748Z,19.75
2018-12-27T00:10:45.367Z,20.67
2018-12-27T00:13:12.967Z,21.42
2018-12-27T00:15:40.525Z,20.67
2018-12-27T00:18:09.106Z,21.35
2018-12-27T00:20:36.700Z,21.52
2018-12-27T00:23:04.263Z,20.50
2018-12-27T00:25:32.620Z,21.12
2018-12-27T00:28:00.168Z,21.10
2018-12-27T00:30:27.724Z,21.87
2018-12-27T00:33:02.927Z,22.70
2018-12-27T00:35:22.974Z,20.70
2018-12-27T00:37:51.550Z,23.48
2018-12-27T00:40:19.117Z,25.30
2018-12-27T00:42:46.770Z,25.65
2018-12-27T00:45:14.397Z,28.30
2018-12-27T00:47:41.973Z,25.53
2018-12-27T00:50:09.569Z,23.60
2018-12-27T00:52:37.118Z,22.63
2018-12-27T00:55:04.702Z,24.13
2018-12-27T00:57:32.261Z,24.80
2018-12-27T00:59:59.856Z,24.33
2018-12-27T01:02:27.432Z,23.60
2018-12-27T01:04:54.994Z,26.90
2018-12-27T01:07:23.347Z,27.73
2018-12-27T01:09:50.918Z,26.45
2018-12-27T01:12:18.508Z,28.33
2018-12-27T01:14:46.093Z,27.30
2018-12-27T01:17:14.150Z,27.40
2018-12-27T01:19:41.768Z,26.40
2018-12-27T01:22:09.348Z,25.87
2018-12-27T01:24:36.946Z,27.53
2018-12-27T01:27:06.315Z,27.13
2018-12-27T01:29:33.887Z,25.02
2018-12-27T01:32:01.465Z,25.93
2018-12-27T01:34:29.023Z,24.75
2018-12-27T01:36:56.596Z,24.90
2018-12-27T01:39:24.156Z,21.37
2018-12-27T01:41:51.761Z,22.27
2018-12-27T01:44:19.325Z,23.45
2018-12-27T01:46:47.900Z,22.97
2018-12-27T01:49:15.500Z,23.83
2018-12-27T01:51:43.058Z,20.93
2018-12-27T01:54:10.649Z,22.20
2018-12-27T01:56:38.239Z,23.23
2018-12-27T01:59:05.793Z,22.20
2018-12-27T02:01:33.369Z,22.33
2018-12-27T02:04:01.972Z,23.00
2018-12-27T02:06:29.538Z,21.90
2018-12-27T02:08:57.120Z,19.70
2018-12-27T02:11:25.477Z,20.40
2018-12-27T02:13:53.841Z,19.60
2018-12-27T02:16:21.392Z,18.75
2018-12-27T02:18:49.938Z,20.23
2018-12-27T02:21:17.489Z,20.47
2018-12-27T02:23:45.085Z,20.80
2018-12-27T02:26:12.654Z,19.55
2018-12-27T02:28:40.266Z,19.45
2018-12-27T02:31:07.822Z,20.83
2018-12-27T02:33:35.836Z,19.98
2018-12-27T02:36:03.013Z,18.70
2018-12-27T02:38:30.602Z,18.67
2018-12-27T02:40:59.006Z,19.03
2018-12-27T02:43:26.605Z,17.85
2018-12-27T02:45:54.164Z,17.50
2018-12-27T02:48:21.762Z,15.27
2018-12-27T02:50:49.346Z,16.70
2018-12-27T02:53:16.917Z,17.02
2018-12-27T02:55:44.497Z,17.27
2018-12-27T02:58:12.084Z,17.40
2018-12-27T03:00:39.647Z,17.10
2018-12-27T03:03:07.246Z,17.45
2018-12-27T03:05:35.804Z,17.43
2018-12-27T03:08:03.398Z,19.80
2018-12-27T03:10:31.741Z,20.12
2018-12-27T03:12:59.330Z,19.80
2018-12-27T03:15:26.933Z,19.65
2018-12-27T03:17:54.513Z,17.52
2018-12-27T03:20:22.109Z,18.90
2018-12-27T03:22:50.589Z,19.17
2018-12-27T03:25:18.949Z,18.90
2018-12-27T03:27:46.514Z,19.85
2018-12-27T03:30:14.119Z,18.95
2018-12-27T03:32:41.686Z,19.40
2018-12-27T03:35:09.264Z,18.37
2018-12-27T03:37:36.852Z,18.95
2018-12-27T03:40:05.174Z,18.17
2018-12-27T03:42:32.758Z,19.23
2018-12-27T03:45:00.350Z,22.25
2018-12-27T03:47:27.905Z,18.77
2018-12-27T03:49:56.241Z,19.45
2018-12-27T03:52:23.842Z,17.30
2018-12-27T03:54:51.392Z,20.42
2018-12-27T03:57:18.978Z,19.93
2018-12-27T03:59:46.551Z,19.95
2018-12-27T04:02:14.157Z,19.60
2018-12-27T04:04:42.485Z,18.67
2018-12-27T04:07:10.072Z,17.27
2018-12-27T04:09:37.641Z,17.52
2018-12-27T04:12:05.192Z,15.90
2018-12-27T04:14:32.789Z,18.60
2018-12-27T04:17:00.419Z,18.03
2018-12-27T04:19:28.001Z,18.12
2018-12-27T04:21:55.562Z,18.10
2018-12-27T04:24:23.163Z,17.87
2018-12-27T04:26:50.712Z,18.87
2018-12-27T04:29:18.314Z,16.87
2018-12-27T04:31:45.871Z,15.97
2018-12-27T04:34:13.462Z,16.67
2018-12-27T04:36:41.020Z,16.23
2018-12-27T04:39:08.622Z,16.12
2018-12-27T04:41:36.190Z,15.53
2018-12-27T04:46:37.714Z,17.33
2018-12-27T04:49:05.307Z,17.55
2018-12-27T04:51:32.865Z,19.40
2018-12-27T04:54:00.428Z,16.90
2018-12-27T04:56:28.020Z,17.30
2018-12-27T04:58:55.583Z,17.70
2018-12-27T05:01:23.164Z,16.67
2018-12-27T05:03:50.732Z,16.27
2018-12-27T05:06:18.285Z,17.23
2018-12-27T05:08:45.917Z,15.80
2018-12-27T05:11:13.499Z,17.43
2018-12-27T05:13:41.087Z,16.98
2018-12-27T05:16:08.658Z,15.20
2018-12-27T05:18:36.251Z,16.45
2018-12-27T05:21:03.826Z,15.30
2018-12-27T05:23:31.488Z,14.32
2018-12-27T05:25:59.085Z,16.05
2018-12-27T05:28:26.648Z,18.05
2018-12-27T05:30:54.236Z,16.00
2018-12-27T05:33:21.797Z,16.98
2018-12-27T05:35:49.383Z,15.93
2018-12-27T05:38:16.996Z,16.73
2018-12-27T05:40:44.564Z,16.97
2018-12-27T05:43:12.151Z,17.25
2018-12-27T05:45:39.732Z,17.00
2018-12-27T05:48:07.321Z,16.87
2018-12-27T05:50:34.869Z,17.03
2018-12-27T05:53:03.445Z,17.15
2018-12-27T05:55:34.440Z,19.12
2018-12-27T05:57:58.647Z,18.70
2018-12-27T06:00:26.210Z,16.70
2018-12-27T06:02:53.861Z,18.58
2018-12-27T06:05:21.423Z,17.80
2018-12-27T06:07:49.012Z,18.33
2018-12-27T06:10:16.604Z,17.37
2018-12-27T06:12:44.196Z,16.30
2018-12-27T06:15:12.688Z,17.02
2018-12-27T06:17:40.268Z,16.50
2018-12-27T06:20:07.864Z,16.58
2018-12-27T06:22:35.436Z,16.73
2018-12-27T06:25:03.026Z,20.05
2018-12-27T06:27:30.596Z,18.50
2018-12-27T06:29:58.953Z,16.85
2018-12-27T06:32:26.505Z,19.17
2018-12-27T06:34:54.090Z,15.85
2018-12-27T06:37:21.654Z,14.47
2018-12-27T06:39:50.009Z,14.90
2018-12-27T06:42:17.567Z,19.90
2018-12-27T06:44:46.140Z,19.35
2018-12-27T06:47:13.721Z,14.43
2018-12-27T06:49:41.285Z,15.70
2018-12-27T06:52:08.945Z,17.17
2018-12-27T06:54:36.471Z,16.40
2018-12-27T06:57:04.098Z,18.23
2018-12-27T06:59:31.746Z,19.12
2018-12-27T07:01:59.335Z,14.47
2018-12-27T07:04:26.900Z,14.52
2018-12-27T07:06:54.482Z,16.00
2018-12-27T07:09:22.812Z,13.90
2018-12-27T07:11:50.392Z,13.13
2018-12-27T07:14:17.995Z,12.68
2018-12-27T07:16:45.552Z,18.90
2018-12-27T07:19:14.125Z,87.55
2018-12-27T07:21:41.684Z,43.00
2018-12-27T07:24:09.277Z,48.83
2018-12-27T07:26:36.838Z,54.30
2018-12-27T07:29:04.428Z,11.68
2018-12-27T07:31:31.998Z,12.15
2018-12-27T07:33:59.585Z,11.50
2018-12-27T07:36:27.148Z,13.52
2018-12-27T07:38:54.700Z,14.30
2018-12-27T07:41:22.286Z,15.50
2018-12-27T07:43:49.845Z,13.85
2018-12-27T07:46:17.439Z,14.82
2018-12-27T07:48:45.033Z,14.50
2018-12-27T07:51:12.592Z,15.80
2018-12-27T07:53:41.181Z,14.65
2018-12-27T07:56:08.751Z,14.40
2018-12-27T07:58:36.310Z,14.23
2018-12-27T08:01:03.887Z,15.07
2018-12-27T08:03:31.446Z,15.60
2018-12-27T08:05:59.038Z,15.80
2018-12-27T08:08:26.617Z,15.02
2018-12-27T08:10:54.207Z,14.87
2018-12-27T08:13:21.767Z,14.20
2018-12-27T08:15:49.353Z,14.00
2018-12-27T08:18:16.937Z,13.65
2018-12-27T08:20:44.529Z,13.20
2018-12-27T08:23:12.133Z,14.35
2018-12-27T08:25:39.699Z,14.97
2018-12-27T08:28:07.299Z,14.68
2018-12-27T08:30:34.861Z,14.00
2018-12-27T08:33:03.412Z,17.00
2018-12-27T08:35:31.000Z,17.33
2018-12-27T08:37:58.565Z,18.25
2018-12-27T08:40:26.158Z,17.40
2018-12-27T08:42:53.725Z,18.77
2018-12-27T08:45:21.329Z,16.50
2018-12-27T08:47:48.914Z,16.45
2018-12-27T08:50:16.485Z,17.45
2018-12-27T08:52:44.070Z,16.85
2018-12-27T08:55:12.559Z,16.50
2018-12-27T08:57:40.127Z,16.83
2018-12-27T09:00:07.721Z,14.47
2018-12-27T09:02:35.295Z,15.90
2018-12-27T09:05:02.909Z,15.77
2018-12-27T09:07:30.484Z,15.43
2018-12-27T09:09:58.044Z,15.57
2018-12-27T09:12:25.625Z,16.40
2018-12-27T09:14:53.173Z,17.30
2018-12-27T09:17:20.752Z,19.13
2018-12-27T09:19:49.338Z,19.13
2018-12-27T09:22:17.674Z,19.20
2018-12-27T09:24:45.259Z,21.17
2018-12-27T09:27:12.809Z,21.07
2018-12-27T09:29:40.364Z,22.50
2018-12-27T09:32:07.949Z,23.53
2018-12-27T09:34:35.500Z,23.93
2018-12-27T09:37:04.092Z,23.87
2018-12-27T09:39:31.687Z,23.70
2018-12-27T09:41:59.270Z,22.07
2018-12-27T09:44:27.874Z,24.60
2018-12-27T09:46:55.441Z,23.40
2018-12-27T09:49:22.992Z,24.70
2018-12-27T09:51:50.577Z,25.00
2018-12-27T09:54:18.149Z,23.83
2018-12-27T09:56:45.734Z,23.87
2018-12-27T09:59:13.318Z,23.17
2018-12-27T10:01:40.881Z,24.60
2018-12-27T10:04:08.472Z,23.07
2018-12-27T10:06:36.021Z,23.20
2018-12-27T10:09:03.572Z,23.80
2018-12-27T10:11:31.150Z,24.60
2018-12-27T10:13:58.695Z,24.60
2018-12-27T10:16:26.273Z,25.70
2018-12-27T10:18:53.830Z,26.70
2018-12-27T10:21:21.411Z,24.97
2018-12-27T10:23:48.993Z,28.03
2018-12-27T10:26:16.582Z,26.40
2018-12-27T10:28:44.133Z,24.90
2018-12-27T10:31:11.708Z,27.67
2018-12-27T10:33:39.265Z,29.20
2018-12-27T10:36:06.839Z,28.73
2018-12-27T10:38:34.391Z,28.40
2018-12-27T10:41:01.970Z,26.97
2018-12-27T10:43:29.550Z,27.00
2018-12-27T10:45:57.096Z,23.03
2018-12-27T10:48:24.668Z,20.87
2018-12-27T10:50:52.249Z,21.43
2018-12-27T10:53:20.579Z,19.60
2018-12-27T10:55:48.153Z,18.57
2018-12-27T10:58:15.705Z,18.37
2018-12-27T11:00:43.332Z,16.80
2018-12-27T11:03:10.886Z,16.37
2018-12-27T11:05:38.442Z,16.63
2018-12-27T11:08:06.027Z,15.60
2018-12-27T11:10:33.578Z,15.27
2018-12-27T11:13:02.154Z,16.30
2018-12-27T11:15:29.714Z,15.57
2018-12-27T11:17:57.269Z,15.70
2018-12-27T11:20:24.871Z,15.33
2018-12-27T11:22:52.438Z,18.57
2018-12-27T11:25:19.992Z,15.40
2018-12-27T11:27:48.340Z,14.30
2018-12-27T11:30:15.912Z,13.80
2018-12-27T11:32:43.491Z,13.83
2018-12-27T11:35:11.064Z,12.90
2018-12-27T11:37:38.612Z,13.70
2018-12-27T11:40:06.198Z,14.40
2018-12-27T11:42:33.747Z,15.33
2018-12-27T11:45:02.308Z,17.80
2018-12-27T11:47:29.871Z,17.33
2018-12-27T11:49:57.453Z,16.70
2018-12-27T11:52:25.002Z,16.93
2018-12-27T11:54:52.579Z,18.63
2018-12-27T11:57:20.157Z,17.30
2018-12-27T11:59:48.481Z,17.77
2018-12-27T12:02:16.060Z,17.17
2018-12-27T12:04:43.604Z,16.37
2018-12-27T12:07:11.265Z,16.50
2018-12-27T12:09:38.840Z,17.63
2018-12-27T12:12:06.423Z,14.90
2018-12-27T12:14:34.769Z,14.40
2018-12-27T12:17:02.321Z,16.03
2018-12-27T12:19:29.878Z,15.83
2018-12-27T12:21:57.456Z,14.57
2018-12-27T12:24:25.003Z,13.90
2018-12-27T12:26:52.588Z,16.13
2018-12-27T12:29:20.140Z,19.00
2018-12-27T12:31:47.724Z,19.17
2018-12-27T12:34:16.042Z,21.30
2018-12-27T12:36:43.593Z,20.37
2018-12-27T12:39:11.181Z,22.40
2018-12-27T12:41:38.818Z,21.87
2018-12-27T12:44:06.394Z,22.30
2018-12-27T12:46:34.044Z,23.77
2018-12-27T12:49:01.626Z,23.30
2018-12-27T12:51:29.176Z,22.27
2018-12-27T12:53:56.771Z,24.30
2018-12-27T12:56:24.337Z,30.23
2018-12-27T12:58:51.884Z,27.77
2018-12-27T13:01:21.564Z,28.13
2018-12-27T13:03:49.160Z,26.90
2018-12-27T13:06:18.088Z,30.40
2018-12-27T13:08:44.522Z,31.37
2018-12-27T13:11:12.100Z,29.07
2018-12-27T13:13:39.649Z,30.80
2018-12-27T13:16:07.228Z,30.80
2018-12-27T13:18:34.788Z,30.40
2018-12-27T13:21:02.371Z,30.80
2018-12-27T13:23:29.946Z,31.57
2018-12-27T13:25:57.501Z,31.30
2018-12-27T13:28:25.096Z,30.13
2018-12-27T13:30:52.679Z,26.97
2018-12-27T13:33:20.244Z,29.47
2018-12-27T13:35:48.593Z,29.83
2018-12-27T13:38:16.148Z,28.50
2018-12-27T13:40:43.727Z,26.93
2018-12-27T13:43:11.334Z,28.00
2018-12-27T13:45:38.888Z,27.53
2018-12-27T13:48:06.552Z,28.40
2018-12-27T13:50:34.125Z,28.40
2018-12-27T13:53:01.704Z,27.57
2018-12-27T13:55:29.257Z,28.07
2018-12-27T13:57:56.833Z,29.47
2018-12-27T14:00:24.390Z,26.30
2018-12-27T14:02:52.749Z,28.70
2018-12-27T14:05:20.305Z,27.77
2018-12-27T14:07:47.888Z,26.40
2018-12-27T14:10:15.443Z,27.90
2018-12-27T14:12:44.774Z,26.90
2018-12-27T14:15:12.353Z,27.13
2018-12-27T14:17:39.898Z,27.50
2018-12-27T14:20:07.485Z,29.23
2018-12-27T14:22:35.071Z,29.57
2018-12-27T14:25:03.401Z,31.33
2018-12-27T14:27:30.980Z,33.97
2018-12-27T14:29:58.540Z,30.63
2018-12-27T14:32:26.117Z,32.67
2018-12-27T14:34:53.673Z,31.67
2018-12-27T14:37:21.225Z,31.33
2018-12-27T14:39:48.821Z,31.80
2018-12-27T14:42:16.972Z,31.90
2018-12-27T14:44:45.314Z,33.30
2018-12-27T14:47:13.068Z,31.60
2018-12-27T14:49:40.656Z,32.13
2018-12-27T14:52:08.233Z,32.20
2018-12-27T14:54:35.814Z,32.00
2018-12-27T14:57:03.367Z,32.42
2018-12-27T14:59:30.909Z,33.10
2018-12-27T15:01:58.480Z,33.13
2018-12-27T15:04:26.036Z,33.47
2018-12-27T15:06:53.657Z,33.23
2018-12-27T15:09:22.009Z,32.53
2018-12-27T15:11:49.573Z,31.53
2018-12-27T15:14:17.149Z,31.13
2018-12-27T15:16:45.071Z,32.30
2018-12-27T15:19:12.342Z,32.47
2018-12-27T15:21:39.893Z,32.70
2018-12-27T15:24:07.491Z,31.17
2018-12-27T15:26:35.801Z,44.00
2018-12-27T15:29:03.349Z,37.97
2018-12-27T15:31:31.919Z,33.70
2018-12-27T15:33:59.478Z,32.07
2018-12-27T15:36:27.073Z,30.63
2018-12-27T15:38:54.633Z,33.20
2018-12-27T15:41:22.222Z,32.23
2018-12-27T15:43:49.801Z,32.37
2018-12-27T15:46:18.144Z,31.73
2018-12-27T15:48:45.690Z,33.03
2018-12-27T15:51:14.244Z,32.07
2018-12-27T15:53:41.829Z,31.60
2018-12-27T15:56:09.389Z,33.30
2018-12-27T15:58:36.993Z,33.30
2018-12-27T16:01:04.581Z,32.70
2018-12-27T16:03:32.146Z,33.77
2018-12-27T16:05:59.741Z,33.27
2018-12-27T16:08:27.328Z,32.10
2018-12-27T16:10:55.890Z,35.53
2018-12-27T16:13:23.449Z,30.90
2018-12-27T16:15:51.040Z,33.73
2018-12-27T16:18:18.589Z,36.33
2018-12-27T16:20:46.169Z,35.23
2018-12-27T16:23:13.749Z,35.10
2018-12-27T16:25:41.297Z,35.93
2018-12-27T16:28:08.893Z,34.20
2018-12-27T16:30:37.325Z,34.63
2018-12-27T16:33:04.893Z,33.17
2018-12-27T16:35:32.485Z,37.37
2018-12-27T16:38:00.802Z,35.87
2018-12-27T16:40:28.369Z,38.87
2018-12-27T16:42:55.960Z,39.07
2018-12-27T16:45:23.544Z,35.80
2018-12-27T16:47:51.892Z,35.30
2018-12-27T16:50:19.466Z,37.03
2018-12-27T16:52:47.045Z,38.70
2018-12-27T16:55:14.596Z,39.10
2018-12-27T16:57:42.937Z,33.27
2018-12-27T17:00:10.480Z,28.97
2018-12-27T17:02:38.062Z,29.47
2018-12-27T17:05:05.640Z,28.53
2018-12-27T17:07:33.958Z,29.30
2018-12-27T17:10:02.506Z,27.73
2018-12-27T17:12:30.091Z,28.40
2018-12-27T17:14:57.638Z,29.60
2018-12-27T17:17:25.242Z,32.87
2018-12-27T17:19:52.806Z,28.93
2018-12-27T17:22:21.162Z,30.90
2018-12-27T17:24:48.716Z,31.93
2018-12-27T17:27:16.297Z,35.40
2018-12-27T17:29:43.873Z,37.40
2018-12-27T17:32:12.203Z,48.87
2018-12-27T17:34:39.801Z,41.23
2018-12-27T17:37:07.402Z,32.00
2018-12-27T17:39:35.973Z,31.60
2018-12-27T17:42:03.531Z,31.50
2018-12-27T17:44:31.117Z,33.70
2018-12-27T17:46:58.677Z,29.33
2018-12-27T17:49:27.008Z,26.70
2018-12-27T17:51:55.617Z,28.17
2018-12-27T17:54:23.196Z,27.90
2018-12-27T17:56:50.783Z,25.03
2018-12-27T17:59:19.124Z,24.50
2018-12-27T18:01:46.677Z,24.17
2018-12-27T18:04:14.253Z,23.50
2018-12-27T18:06:41.804Z,23.10
2018-12-27T18:09:09.387Z,22.57
2018-12-27T18:11:36.945Z,23.50
2018-12-27T18:14:04.528Z,25.47
2018-12-27T18:16:32.106Z,31.67
2018-12-27T18:18:59.659Z,30.93
2018-12-27T18:21:27.242Z,30.77
2018-12-27T18:23:54.802Z,24.93
2018-12-27T18:26:22.381Z,27.03
2018-12-27T18:28:49.937Z,32.43
2018-12-27T18:31:17.525Z,33.37
2018-12-27T18:33:45.121Z,32.47
2018-12-27T18:36:12.702Z,33.83
2018-12-27T18:38:40.256Z,38.47
2018-12-27T18:41:07.836Z,46.30
2018-12-27T18:43:35.548Z,64.03
2018-12-27T18:46:03.133Z,59.13
2018-12-27T18:48:30.688Z,44.87
2018-12-27T18:50:58.261Z,37.30
2018-12-27T18:53:25.813Z,36.97
2018-12-27T18:55:53.676Z,34.07
2018-12-27T18:58:21.262Z,28.20
2018-12-27T19:00:49.011Z,25.60
2018-12-27T19:03:16.596Z,22.83
2018-12-27T19:05:44.145Z,22.90
2018-12-27T19:08:12.488Z,23.03
2018-12-27T19:10:40.089Z,21.83
2018-12-27T19:13:07.665Z,20.77
2018-12-27T19:15:37.085Z,20.93
2018-12-27T19:18:04.678Z,20.53
2018-12-27T19:20:32.236Z,20.57
2018-12-27T19:22:59.813Z,24.67
2018-12-27T19:25:27.373Z,22.57
2018-12-27T19:27:54.943Z,19.80
2018-12-27T19:30:22.546Z,19.53
2018-12-27T19:32:50.096Z,25.17
2018-12-27T19:35:17.653Z,26.57
2018-12-27T19:37:52.134Z,26.27
2018-12-27T19:40:13.927Z,23.30
2018-12-27T19:42:41.478Z,25.00
2018-12-27T19:45:09.065Z,24.80
2018-12-27T19:47:36.641Z,28.77
2018-12-27T19:50:05.215Z,23.50
2018-12-27T19:52:32.781Z,21.40
2018-12-27T19:55:00.362Z,20.87
2018-12-27T19:57:27.915Z,21.67
2018-12-27T19:59:55.492Z,20.20
2018-12-27T20:02:23.052Z,19.30
2018-12-27T20:04:50.645Z,18.00
2018-12-27T20:07:18.201Z,15.40
2018-12-27T20:09:45.761Z,16.50
2018-12-27T20:12:14.337Z,14.80
2018-12-27T20:14:42.656Z,13.60
2018-12-27T20:17:10.236Z,14.43
2018-12-27T20:19:41.019Z,16.27
2018-12-27T20:22:13.936Z,14.30
2018-12-27T20:24:44.195Z,15.40
2018-12-27T20:27:12.545Z,14.73
2018-12-27T20:29:40.651Z,16.17
2018-12-27T20:32:08.970Z,15.33
2018-12-27T20:34:38.576Z,14.33
2018-12-27T20:37:06.165Z,12.93
2018-12-27T20:39:45.137Z,13.03
2018-12-27T20:42:21.549Z,13.73
2018-12-27T20:44:58.213Z,14.60
2018-12-27T20:47:30.229Z,13.97
2018-12-27T20:49:58.044Z,14.97
2018-12-27T20:52:25.633Z,16.30
2018-12-27T20:54:53.273Z,19.47
2018-12-27T20:57:20.888Z,18.63
2018-12-27T20:59:52.058Z,18.80
2018-12-27T21:02:19.636Z,16.17
2018-12-27T21:04:47.984Z,18.07
2018-12-27T21:07:15.564Z,19.00
2018-12-27T21:09:43.160Z,16.60
2018-12-27T21:12:10.929Z,16.77
2018-12-27T21:14:38.516Z,17.10
2018-12-27T21:17:06.101Z,16.53
2018-12-27T21:19:33.677Z,19.30
2018-12-27T21:22:02.006Z,16.42
2018-12-27T21:24:29.566Z,15.80
2018-12-27T21:26:57.160Z,14.17
2018-12-27T21:29:24.741Z,13.20
2018-12-27T21:31:52.321Z,15.37
2018-12-27T21:34:19.901Z,14.90
2018-12-27T21:36:47.459Z,12.60
2018-12-27T21:39:15.038Z,12.70
2018-12-27T21:41:42.593Z,12.87
2018-12-27T21:44:11.334Z,21.47
2018-12-27T21:46:38.889Z,18.53
2018-12-27T21:49:06.470Z,13.13
2018-12-27T21:51:35.024Z,12.40
2018-12-27T21:54:02.582Z,10.00
2018-12-27T21:56:30.174Z,11.77
2018-12-27T21:58:57.723Z,9.17
2018-12-27T22:01:25.312Z,9.53
2018-12-27T22:03:53.624Z,9.73
2018-12-27T22:06:21.169Z,15.87
2018-12-27T22:08:48.744Z,11.60
2018-12-27T22:11:16.350Z,11.83
2018-12-27T22:13:43.933Z,9.83
2018-12-27T22:16:11.509Z,8.53
2018-12-27T22:18:40.103Z,9.07
2018-12-27T22:21:07.681Z,9.10
2018-12-27T22:23:35.256Z,11.50
2018-12-27T22:26:03.605Z,9.70
2018-12-27T22:28:38.047Z,11.83
2018-12-27T22:31:22.593Z,9.77
2018-12-27T22:33:57.564Z,7.93
2018-12-27T22:36:25.212Z,7.60
2018-12-27T22:38:52.764Z,9.47
2018-12-27T22:41:21.085Z,10.80
2018-12-27T22:43:48.664Z,12.33
2018-12-27T22:46:16.228Z,12.90
2018-12-27T22:48:43.811Z,13.80
2018-12-27T22:51:12.125Z,12.23
2018-12-27T22:53:39.710Z,13.63
2018-12-27T22:56:08.267Z,12.07
2018-12-27T22:58:35.850Z,12.43
2018-12-27T23:01:03.395Z,12.60
2018-12-27T23:03:30.937Z,12.37
2018-12-27T23:05:58.513Z,11.87
2018-12-27T23:08:26.069Z,10.43
2018-12-27T23:10:53.648Z,11.73
2018-12-27T23:13:21.201Z,12.30
2018-12-27T23:15:48.804Z,11.60
2018-12-27T23:18:16.374Z,11.70
2018-12-27T23:20:43.957Z,11.93
2018-12-27T23:23:11.721Z,12.00
2018-12-27T23:25:39.276Z,13.67
2018-12-27T23:28:06.857Z,12.37
2018-12-27T23:30:34.479Z,12.67
2018-12-27T23:33:02.058Z,13.30
2018-12-27T23:35:29.615Z,13.00
2018-12-27T23:37:57.170Z,13.50
2018-12-27T23:40:26.109Z,13.10
2018-12-27T23:42:54.340Z,13.30
2018-12-27T23:45:22.168Z,13.70
2018-12-27T23:47:50.132Z,15.03
2018-12-27T23:50:17.905Z,15.60
2018-12-27T23:52:45.576Z,16.37
2018-12-27T23:55:13.243Z,19.45
2018-12-27T23:57:40.860Z,14.23
